Flight Track Log - Related Links

Times and Time Zones

All times are in EDT time to prevent confusion due to time zone crossing. See the UAL1551 flight status page for this flight to view local times or setup timezone preferences in your user account.

Time Position Orientation Groundspeed Altitude Reporting Facility
EDT Latitude Longitude Course Direction KTS MPH feet Rate Location/Type
Mon 11:22:32 AM 40.7295 -74.2129 164° South  Level FlightAware
Mon 11:23:25 AM 40.6500 -74.1833 313° West 177 204 2,000  Level New TRACON
Mon 11:28:59 AM 40.8972 -74.5403 334° Northwest 265 305 9,000 1,066 Climbing New Center
Mon 11:29:59 AM 40.9708 -74.5883 334° Northwest 265 305 9,000 793 Level New Center
Mon 11:31:00 AM 41.0422 -74.6336 334° Northwest 273 314 10,600 1,537 Climbing New Center
Mon 11:32:00 AM 41.1197 -74.6847 306° West 294 338 12,100 2,182 Climbing New Center
Mon 11:33:01 AM 41.1767 -74.7872 301° West 330 380 15,000 2,797 Climbing New Center
Mon 11:33:58 AM 41.2269 -74.8978 299° West 354 407 17,600 2,134 Climbing New Center
Mon 11:37:00 AM 41.3764 -75.2525 300° West 381 438 23,500 1,909 Climbing New Center
Mon 11:38:00 AM 41.4300 -75.3781 300° West 391 450 25,300 1,636 Climbing New Center
Mon 11:39:01 AM 41.4853 -75.5064 291° West 391 450 26,800 1,570 Climbing New Center
Mon 11:42:58 AM 41.6522 -76.0928 290° West 417 480 33,100 1,026 Climbing New Center
Mon 11:47:59 AM 41.8358 -76.7592 290° West 375 432 36,000 482 Climbing Cleveland Center
Mon 11:48:59 AM 41.8717 -76.8936 290° West 382 440 36,000  Level Cleveland Center
Mon 11:49:59 AM 41.9069 -77.0228 290° West 375 432 36,000  Level Cleveland Center
Mon 11:50:59 AM 41.9422 -77.1547 289° West 375 432 36,000  Level Cleveland Center
Mon 11:51:59 AM 41.9753 -77.2872 290° West 380 437 36,000  Level Cleveland Center
Mon 11:52:59 AM 42.0078 -77.4058 291° West 380 437 36,000  Level Cleveland Center
Mon 11:53:59 AM 42.0469 -77.5408 289° West 380 437 36,000  Level Cleveland Center
Mon 11:54:59 AM 42.0817 -77.6733 289° West 380 437 36,000  Level Cleveland Center
Mon 11:55:59 AM 42.1161 -77.8064 289° West 380 437 36,000  Level Cleveland Center
Mon 11:56:59 AM 42.1506 -77.9392 290° West 380 437 36,000  Level Cleveland Center
Mon 11:57:59 AM 42.1892 -78.0861 289° West 380 437 36,000  Level Cleveland Center
Mon 11:58:59 AM 42.2233 -78.2222 291° West 380 437 36,000  Level Cleveland Center
Mon 11:59:59 AM 42.2594 -78.3528 289° West 380 437 36,000  Level Cleveland Center
Mon 12:00:59 PM 42.2933 -78.4892 288° West 380 437 36,000  Level Cleveland Center
Mon 12:01:59 PM 42.3269 -78.6256 290° West 380 437 36,000  Level Cleveland Center
Mon 12:02:59 PM 42.3622 -78.7539 288° West 375 432 36,000  Level Cleveland Center
Mon 12:03:59 PM 42.3958 -78.8906 288° West 375 432 36,000  Level Cleveland Center
Mon 12:04:59 PM 42.4244 -79.0108 290° West 375 432 36,000  Level Cleveland Center
Mon 12:05:59 PM 42.4597 -79.1450 288° West 380 437 36,000  Level Cleveland Center
Mon 12:06:59 PM 42.4925 -79.2850 273° West 380 437 36,000  Level Cleveland Center
Mon 12:07:59 PM 42.4983 -79.4286 274° West 385 443 36,000  Level Cleveland Center
Mon 12:08:59 PM 42.5058 -79.5722 274° West 385 443 36,000  Level Cleveland Center
Mon 12:09:59 PM 42.5133 -79.7128 274° West 385 443 36,000  Level Cleveland Center
Mon 12:10:59 PM 42.5206 -79.8564 273° West 385 443 36,000  Level Cleveland Center
Mon 12:11:59 PM 42.5256 -80.0142 273° West 385 443 36,000  Level Cleveland Center
Mon 12:12:59 PM 42.5303 -80.1578 274° West 385 443 36,000  Level Cleveland Center
Mon 12:13:59 PM 42.5369 -80.3014 274° West 385 443 36,000  Level Cleveland Center
Mon 12:14:59 PM 42.5436 -80.4508 273° West 390 449 36,000  Level Cleveland Center
Mon 12:15:59 PM 42.5497 -80.5944 273° West 389 448 36,000  Level Cleveland Center
Mon 12:16:59 PM 42.5558 -80.7411 273° West 389 448 36,000  Level Cleveland Center
Mon 12:17:59 PM 42.5619 -80.8875 272° West 394 453 36,000  Level Cleveland Center
Mon 12:18:59 PM 42.5656 -81.0369 273° West 394 453 36,000  Level Cleveland Center
Mon 12:19:59 PM 42.5711 -81.1808 272° West 394 453 36,000  Level Cleveland Center
Mon 12:20:59 PM 42.5744 -81.3161 275° West 394 453 36,000  Level Cleveland Center
Mon 12:21:59 PM 42.5839 -81.4631 284° West 394 453 36,000  Level Cleveland Center
Mon 12:22:59 PM 42.6100 -81.6044 284° West 394 453 36,000  Level Cleveland Center
Mon 12:23:59 PM 42.6356 -81.7486 282° West 394 453 36,000  Level Cleveland Center
Mon 12:24:59 PM 42.6611 -81.9072 283° West 394 453 36,000  Level Cleveland Center
Mon 12:25:59 PM 42.6864 -82.0519 283° West 394 453 36,000  Level Cleveland Center
Mon 12:26:59 PM 42.7114 -82.1967 283° West 394 453 36,000 -50 Level Cleveland Center
Mon 12:27:59 PM 42.7364 -82.3414 282° West 394 453 35,900 -50 Descending Cleveland Center
Mon 12:28:59 PM 42.7592 -82.4892 294° West 394 453 35,900 50 Level Cleveland Center
Mon 12:29:59 PM 42.8047 -82.6264 299° West 394 453 36,000 50 Climbing Cleveland Center
Mon 12:30:59 PM 42.8606 -82.7614 301° West 404 465 36,000  Level Cleveland Center
Mon 12:31:59 PM 42.9164 -82.8881 300° West 404 465 36,000 -50 Level Cleveland Center
Mon 12:32:59 PM 42.9722 -83.0206 297° West 404 465 35,900 -350 Descending Cleveland Center
Mon 12:33:59 PM 43.0214 -83.1531 263° West 396 456 35,300 -750 Descending Cleveland Center
Mon 12:34:59 PM 43.0075 -83.3003 264° West 381 438 34,400 -1,000 Descending Cleveland Center
Mon 12:35:59 PM 42.9956 -83.4475 262° West 388 447 33,300 -950 Descending Cleveland Center
Mon 12:36:59 PM 42.9819 -83.5831 263° West 393 452 32,500 -650 Descending Cleveland Center
Mon 12:37:59 PM 42.9672 -83.7356 263° West 406 467 32,000 -250 Descending Cleveland Center
Mon 12:38:59 PM 42.9528 -83.8853 263° West 406 467 32,000  Level Cleveland Center
Mon 12:39:59 PM 42.9378 -84.0403 263° West 412 474 32,000  Level Cleveland Center
Mon 12:42:08 PM 42.9058 -84.3744 261° West 408 470 32,000  Level Chicago Center
Mon 12:43:08 PM 42.8894 -84.5231 263° West 408 470 32,000  Level Chicago Center
Mon 12:44:08 PM 42.8781 -84.6544 261° West 408 470 32,000  Level Chicago Center
Mon 12:45:08 PM 42.8611 -84.8031 262° West 408 470 32,000  Level Chicago Center
Mon 12:46:08 PM 42.8458 -84.9486 262° West 408 470 32,000  Level Chicago Center
Mon 12:47:08 PM 42.8306 -85.1000 261° West 408 470 32,000  Level Chicago Center
Mon 12:48:08 PM 42.8131 -85.2483 262° West 408 470 32,000  Level Chicago Center
Mon 12:49:08 PM 42.7975 -85.3967 260° West 408 470 32,000 -200 Level Chicago Center
Mon 12:50:08 PM 42.7758 -85.5592 256° West 408 470 31,600 -1,650 Descending Chicago Center
Mon 12:51:08 PM 42.7494 -85.7078 256° West 408 470 28,700 -2,550 Descending Chicago Center
Mon 12:52:08 PM 42.7225 -85.8508 256° West 403 464 26,500 -2,200 Descending Chicago Center
Mon 12:53:08 PM 42.6956 -85.9936 258° West 397 457 24,300 -2,000 Descending Chicago Center
Mon 12:54:08 PM 42.6761 -86.1161 255° West 392 451 22,500 -2,000 Descending Chicago Center
Mon 12:55:08 PM 42.6486 -86.2531 257° West 380 437 20,300 -1,250 Descending Chicago Center
Mon 12:56:08 PM 42.6269 -86.3839 255° West 375 432 20,000 -150 Descending Chicago Center
Mon 12:57:08 PM 42.6011 -86.5150 256° West 370 426 20,000 -800 Level Chicago Center
Mon 12:58:08 PM 42.5772 -86.6458 254° West 364 419 18,400 -1,750 Descending Chicago Center
Mon 12:59:08 PM 42.5469 -86.7853 248° West 359 413 16,500 -2,200 Descending Chicago Center
Mon 01:00:08 PM 42.5119 -86.9050 251° West 354 407 14,000 -2,182 Descending Chicago Center
Mon 01:01:20 PM 42.4792 -87.0328 249° West 349 402 11,700 -1,773 Descending Chicago Center
Mon 01:02:20 PM 42.4403 -87.1722 249° West 349 402 10,100 -1,250 Descending Chicago Center
Mon 01:03:20 PM 42.4108 -87.2744 255° West 325 374 9,200 -550 Descending Chicago Center
Mon 01:04:20 PM 42.3936 -87.3594 248° West 309 356 9,000 -750 Descending Chicago Center
Mon 01:05:20 PM 42.3581 -87.4758 239° Southwest 292 336 7,700 -1,350 Descending Chicago Center
Mon 01:06:20 PM 42.3197 -87.5611 178° South 272 313 6,300 -1,100 Descending Chicago Center
Mon 01:07:20 PM 42.2428 -87.5575 175° South 290 334 5,500 -650 Descending Chicago Center
Mon 01:08:20 PM 42.1694 -87.5486 161° South 290 334 5,000 -429 Descending Chicago Center
Mon 01:09:40 PM 42.1000 -87.5167 90° East 197 227 4,500 -411 Descending Chicago TRACON
Mon 01:10:46 PM 42.1000 -87.4333 114° Southeast 198 228 4,000 -238 Descending Chicago TRACON
Mon 01:11:46 PM 42.0833 -87.3833 166° South 199 229 4,000  Level Chicago TRACON
Mon 01:12:46 PM 42.0333 -87.3667 246° West 182 209 4,000  Level Chicago TRACON
Mon 01:13:41 PM 42.0167 -87.4167 251° West 172 198 4,000  Level Chicago TRACON
Mon 01:14:47 PM 42.0000 -87.4833 270° West 169 194 4,000  Level Chicago TRACON
Mon 01:15:47 PM 42.0000 -87.5500 270° West 168 193 4,000  Level Chicago TRACON
Mon 01:16:47 PM 42.0000 -87.6167 270° West 171 197 4,000 -50 Level Chicago TRACON
Mon 01:17:47 PM 42.0000 -87.6833 270° West 171 197 3,900 -100 Descending Chicago TRACON

Login

Don't have an account? Register now (free) for customized features, flight alerts, and more!